Hlavní strana
METAR-TAF:

METAR-TAF

Letiště :

Wallops Flight Facility

Wallops Island, Virginie, Spojené státy americké

zeměpisná šířka: 37-56-26N, zeměpisná délka: 075-27-47W, výška: 12 m

Aktuální stav počasí

Zpráva byla vytvořena před 8 hodinami a 59 minutami, v 15:01 UTC
Jižní vítr 16 kt s nárazy do 25 kt
Teplota 18°C
Vlhkost vzduchu 94%
Tlak 1002 hPa
Viditelnost: 11.3 km
Oblačno až skoro zataženo ve výšce 700 ft
Oblačno až skoro zataženo ve výšce 3000 ft
Zataženo ve výšce 3700 ft

METAR: KWAL 301501Z AUTO 19016G25KT 7SM BKN007 BKN030 OVC037 18/17 A2959 RMK AO2 RAB1458E1459 CIG 006V011 P0000 T01780172

Čas: 19:00 (00:00 UTC)


TAF: chybějící

Stav a předpovědi počasí z více než 4 000 letišť (zprávy METAR a TAF).

Červené a žluté tečky na mapě představují dostupné meteorologické stanice.

Když kurzor umístíte na tečku, zobrazí se název stanice.

Pak kliknutím zobrazíte stav a předpověď počasí.

Chcete-li změnit mapu, kliknutím na zelené tlačítko se znaménkem +mapu přiblížíte, kliknutím na zelené tlačítko se znaménkem – mapu oddálíte a kliknutím na zelené šipky přejdete na sousední mapy.


METAR-TAF: